Time;durP1;ratioP1;P1;durP2;ratioP2;P2;SDS_P1;SDS_P2;PMS_P1;PMS_P2;Temp;Humidity;BMP_temperature;BMP_pressure;BME280_temperature;BME280_humidity;BME280_pressure;Samples;Min_cycle;Max_cycle;Signal;HPM_P1;HPM_P2
2023/03/04 00:01:49;;;;;;;13.68;2.88;;;;;;;;;;4975707;28;20093;-81
2023/03/04 00:04:15;;;;;;;11.20;3.38;;;;;;;;;;4983672;28;20413;-83
2023/03/04 00:06:41;;;;;;;9.95;2.90;;;;;;;;;;4986444;28;20054;-82
2023/03/04 00:09:07;;;;;;;11.60;2.75;;;;;;;;;;4969154;28;20048;-82
2023/03/04 00:11:34;;;;;;;8.35;2.95;;;;;;;;;;4977289;28;20074;-81
2023/03/04 00:14:00;;;;;;;9.93;2.80;;;;;;;;;;4981929;28;20058;-81
2023/03/04 00:16:26;;;;;;;9.68;2.97;;;;;;;;;;4967346;28;20050;-82
2023/03/04 00:18:56;;;;;;;15.73;3.17;;;;;;;;;;4990166;28;20125;-82
2023/03/04 00:21:22;;;;;;;13.32;2.65;;;;;;;;;;4973714;28;20050;-81
2023/03/04 00:23:48;;;;;;;9.50;2.60;;;;;;;;;;4986218;28;20050;-81
2023/03/04 00:26:14;;;;;;;6.20;2.55;;;;;;;;;;4977454;28;20050;-81
2023/03/04 00:28:41;;;;;;;12.73;2.72;;;;;;;;;;4985095;28;20042;-81
2023/03/04 00:31:07;;;;;;;6.57;2.00;;;;;;;;;;4984933;28;20117;-82
2023/03/04 00:33:33;;;;;;;11.90;2.90;;;;;;;;;;4972340;28;20044;-81
2023/03/04 00:36:00;;;;;;;10.40;2.90;;;;;;;;;;4961805;28;20047;-81
2023/03/04 00:38:26;;;;;;;8.63;2.50;;;;;;;;;;4963488;28;21779;-81
2023/03/04 00:40:52;;;;;;;7.97;2.55;;;;;;;;;;4970632;28;20125;-81
2023/03/04 00:43:18;;;;;;;13.65;3.05;;;;;;;;;;4963118;28;20046;-81
2023/03/04 00:45:44;;;;;;;13.63;2.67;;;;;;;;;;4966278;28;20056;-81
2023/03/04 00:48:10;;;;;;;9.77;2.78;;;;;;;;;;4961900;28;20142;-81
2023/03/04 00:50:36;;;;;;;15.65;2.58;;;;;;;;;;4984012;28;20457;-81
2023/03/04 00:53:02;;;;;;;9.52;2.80;;;;;;;;;;4980246;28;20516;-81
2023/03/04 00:55:28;;;;;;;13.40;3.30;;;;;;;;;;4965263;28;20046;-81
2023/03/04 00:57:54;;;;;;;12.93;3.40;;;;;;;;;;4982540;28;20044;-81
2023/03/04 01:00:21;;;;;;;14.48;3.33;;;;;;;;;;4962980;28;20069;-81
2023/03/04 01:02:47;;;;;;;9.57;3.15;;;;;;;;;;4984057;28;21325;-81
2023/03/04 01:05:13;;;;;;;13.13;3.45;;;;;;;;;;4964488;28;20513;-81
2023/03/04 01:07:39;;;;;;;13.55;2.90;;;;;;;;;;4970836;28;20066;-81
2023/03/04 01:10:06;;;;;;;10.68;3.28;;;;;;;;;;4971085;28;20038;-81
2023/03/04 01:12:32;;;;;;;9.23;2.70;;;;;;;;;;4975674;28;20046;-81
2023/03/04 01:14:58;;;;;;;9.45;2.80;;;;;;;;;;4957819;28;20062;-81
2023/03/04 01:17:24;;;;;;;11.27;2.72;;;;;;;;;;4968691;28;20490;-81
2023/03/04 01:19:50;;;;;;;9.35;2.70;;;;;;;;;;4979792;28;20054;-81
2023/03/04 01:22:17;;;;;;;10.68;2.40;;;;;;;;;;4970681;28;20112;-81
2023/03/04 01:24:44;;;;;;;9.07;2.65;;;;;;;;;;4966574;28;20517;-81
2023/03/04 01:27:10;;;;;;;11.50;2.88;;;;;;;;;;4988581;28;20118;-81
2023/03/04 01:29:36;;;;;;;4.95;2.20;;;;;;;;;;4970372;28;20046;-81
2023/03/04 01:32:02;;;;;;;9.15;2.50;;;;;;;;;;4967809;28;20050;-81
2023/03/04 01:34:28;;;;;;;11.70;2.42;;;;;;;;;;4984098;28;20060;-81
2023/03/04 01:36:54;;;;;;;6.43;2.72;;;;;;;;;;5000408;28;20481;-81
2023/03/04 01:39:20;;;;;;;10.98;2.85;;;;;;;;;;4986021;28;20054;-81
2023/03/04 01:41:46;;;;;;;11.27;2.70;;;;;;;;;;4972025;28;20046;-81
2023/03/04 01:44:12;;;;;;;10.63;2.40;;;;;;;;;;4983103;28;20152;-81
2023/03/04 01:46:40;;;;;;;8.95;3.17;;;;;;;;;;4961911;28;20050;-81
2023/03/04 01:49:06;;;;;;;12.40;3.08;;;;;;;;;;4981753;28;20046;-81
2023/03/04 01:51:32;;;;;;;10.77;3.13;;;;;;;;;;4970143;28;20474;-81
2023/03/04 01:53:58;;;;;;;17.05;3.42;;;;;;;;;;4984962;28;20443;-81
2023/03/04 01:56:27;;;;;;;7.43;2.30;;;;;;;;;;4986818;28;21632;-81
2023/03/04 01:59:08;;;;;;;7.60;2.70;;;;;;;;;;4984904;28;20529;-81
2023/03/04 02:01:35;;;;;;;11.23;2.88;;;;;;;;;;4986089;28;20494;-81
2023/03/04 02:04:01;;;;;;;20.13;3.67;;;;;;;;;;4984850;28;20042;-81
2023/03/04 02:06:27;;;;;;;7.20;2.38;;;;;;;;;;4985438;28;20174;-81
2023/03/04 02:08:53;;;;;;;6.00;2.15;;;;;;;;;;4987142;28;20146;-81
2023/03/04 02:11:19;;;;;;;5.40;2.65;;;;;;;;;;4967080;28;20050;-81
2023/03/04 02:13:45;;;;;;;10.10;2.83;;;;;;;;;;4994968;28;20062;-81
2023/03/04 02:16:11;;;;;;;16.25;3.10;;;;;;;;;;4977861;28;20478;-81
2023/03/04 02:18:37;;;;;;;9.70;3.00;;;;;;;;;;4982230;28;20394;-81
2023/03/04 02:21:22;;;;;;;8.75;3.00;;;;;;;;;;4993998;28;20043;-81
2023/03/04 02:23:52;;;;;;;11.35;2.72;;;;;;;;;;4991477;28;20086;-81
2023/03/04 02:26:20;;;;;;;8.88;2.50;;;;;;;;;;4972351;28;20093;-81
2023/03/04 02:28:47;;;;;;;12.05;2.92;;;;;;;;;;4988456;28;20491;-81
2023/03/04 02:31:22;;;;;;;12.00;3.03;;;;;;;;;;4984386;28;20042;-81
2023/03/04 02:33:48;;;;;;;9.82;2.40;;;;;;;;;;4994190;28;20573;-81
2023/03/04 02:36:14;;;;;;;12.32;3.08;;;;;;;;;;4973521;28;20050;-81
2023/03/04 02:38:41;;;;;;;12.13;3.00;;;;;;;;;;4984684;28;20046;-81
2023/03/04 02:41:09;;;;;;;9.85;2.97;;;;;;;;;;4965276;28;20433;-81
2023/03/04 02:43:35;;;;;;;8.82;2.63;;;;;;;;;;4984437;28;20101;-81
2023/03/04 02:46:01;;;;;;;8.02;2.15;;;;;;;;;;4985818;28;20038;-81
2023/03/04 02:48:27;;;;;;;5.85;2.20;;;;;;;;;;4967224;28;20061;-81
2023/03/04 02:50:53;;;;;;;7.60;2.15;;;;;;;;;;4966348;28;20129;-81
2023/03/04 02:53:19;;;;;;;7.35;2.00;;;;;;;;;;4985835;28;20034;-81
2023/03/04 02:55:46;;;;;;;7.13;2.10;;;;;;;;;;4966476;28;20104;-81
2023/03/04 02:58:12;;;;;;;6.53;2.17;;;;;;;;;;4967391;28;20751;-81
2023/03/04 03:00:39;;;;;;;6.47;2.20;;;;;;;;;;4982255;28;20074;-81
2023/03/04 03:03:05;;;;;;;10.77;2.58;;;;;;;;;;4967772;28;20053;-81
2023/03/04 03:05:33;;;;;;;10.88;2.10;;;;;;;;;;4985100;28;20061;-81
2023/03/04 03:07:59;;;;;;;10.13;2.22;;;;;;;;;;5002323;28;20051;-81
2023/03/04 03:10:25;;;;;;;9.45;2.13;;;;;;;;;;4993427;28;20137;-81
2023/03/04 03:12:52;;;;;;;9.38;2.70;;;;;;;;;;4966726;28;20089;-81
2023/03/04 03:15:18;;;;;;;11.15;2.35;;;;;;;;;;4965516;28;20078;-81
2023/03/04 03:17:44;;;;;;;9.40;2.75;;;;;;;;;;4961953;28;20035;-81
2023/03/04 03:20:11;;;;;;;7.40;1.83;;;;;;;;;;5002863;28;20054;-81
2023/03/04 03:22:37;;;;;;;3.55;1.80;;;;;;;;;;4970149;28;20051;-81
2023/03/04 03:25:03;;;;;;;7.25;1.98;;;;;;;;;;4991883;28;20043;-81
2023/03/04 03:27:29;;;;;;;4.93;1.88;;;;;;;;;;4971218;28;20047;-81
2023/03/04 03:29:55;;;;;;;7.57;2.05;;;;;;;;;;4992194;28;20133;-81
2023/03/04 03:32:21;;;;;;;5.13;2.10;;;;;;;;;;4972605;28;20129;-80
2023/03/04 03:34:47;;;;;;;5.93;1.90;;;;;;;;;;4968967;28;20053;-81
2023/03/04 03:37:14;;;;;;;7.25;2.00;;;;;;;;;;4955922;28;20046;-81
2023/03/04 03:39:40;;;;;;;5.25;2.03;;;;;;;;;;4993363;28;20487;-82
2023/03/04 03:42:06;;;;;;;5.28;1.70;;;;;;;;;;4961541;28;20049;-81
2023/03/04 03:44:32;;;;;;;7.57;1.73;;;;;;;;;;4967231;28;20101;-81
2023/03/04 03:46:58;;;;;;;6.40;1.88;;;;;;;;;;4967865;28;20113;-81
2023/03/04 03:49:24;;;;;;;8.55;1.90;;;;;;;;;;4972579;28;20490;-81
2023/03/04 03:51:50;;;;;;;5.50;2.25;;;;;;;;;;4962148;28;20047;-81
2023/03/04 03:54:16;;;;;;;9.40;2.28;;;;;;;;;;4966918;28;20475;-81
2023/03/04 03:56:42;;;;;;;5.55;2.08;;;;;;;;;;4997886;28;20094;-81
2023/03/04 03:59:08;;;;;;;3.95;1.92;;;;;;;;;;4963469;28;20487;-81
2023/03/04 04:01:34;;;;;;;6.07;2.13;;;;;;;;;;4997095;28;20043;-81
2023/03/04 04:04:00;;;;;;;6.22;1.90;;;;;;;;;;4963549;28;20043;-81
2023/03/04 04:06:26;;;;;;;4.70;2.10;;;;;;;;;;4997182;28;20192;-81
2023/03/04 04:08:52;;;;;;;5.35;1.90;;;;;;;;;;4993793;28;20117;-82
2023/03/04 04:11:18;;;;;;;8.30;1.80;;;;;;;;;;4999689;28;20475;-81
2023/03/04 04:13:44;;;;;;;7.85;2.00;;;;;;;;;;4980507;28;20533;-81
2023/03/04 04:16:11;;;;;;;8.90;2.00;;;;;;;;;;4994374;28;21942;-81
2023/03/04 04:18:38;;;;;;;10.23;2.25;;;;;;;;;;4990251;28;20486;-81
2023/03/04 04:21:04;;;;;;;6.00;2.20;;;;;;;;;;4971405;28;20595;-81
2023/03/04 04:23:30;;;;;;;3.83;1.70;;;;;;;;;;4991925;28;20046;-81
2023/03/04 04:25:57;;;;;;;8.95;2.17;;;;;;;;;;4988592;28;20392;-81
2023/03/04 04:28:23;;;;;;;7.35;2.10;;;;;;;;;;4971112;28;20048;-81
2023/03/04 04:30:50;;;;;;;5.13;2.00;;;;;;;;;;4971135;28;20100;-81
2023/03/04 04:33:16;;;;;;;6.43;2.05;;;;;;;;;;4975797;28;20050;-81
2023/03/04 04:35:42;;;;;;;4.22;1.77;;;;;;;;;;4998843;28;20493;-81
2023/03/04 04:38:08;;;;;;;8.77;2.15;;;;;;;;;;4968437;28;20097;-81
2023/03/04 04:40:34;;;;;;;9.45;2.25;;;;;;;;;;4967751;28;20046;-81
2023/03/04 04:43:01;;;;;;;5.53;1.83;;;;;;;;;;4963686;28;20100;-81
2023/03/04 04:45:27;;;;;;;7.95;1.83;;;;;;;;;;4982815;28;20050;-81
2023/03/04 04:47:54;;;;;;;6.65;2.03;;;;;;;;;;5002927;28;20424;-81
2023/03/04 04:50:20;;;;;;;9.10;2.13;;;;;;;;;;4982328;28;20109;-81
2023/03/04 04:52:46;;;;;;;6.28;1.80;;;;;;;;;;4964960;28;20057;-81
2023/03/04 04:55:12;;;;;;;7.15;1.80;;;;;;;;;;4964310;28;20499;-81
2023/03/04 04:57:38;;;;;;;6.38;1.73;;;;;;;;;;4962532;28;20584;-81
2023/03/04 05:00:05;;;;;;;6.70;2.22;;;;;;;;;;4984230;28;20516;-81
2023/03/04 05:02:35;;;;;;;8.68;2.00;;;;;;;;;;4988933;28;20046;-80
2023/03/04 05:05:05;;;;;;;6.43;2.05;;;;;;;;;;4968168;28;20486;-81
2023/03/04 05:07:31;;;;;;;5.80;1.67;;;;;;;;;;4987725;28;20529;-81
2023/03/04 05:09:57;;;;;;;5.38;1.95;;;;;;;;;;4970279;28;20093;-81
2023/03/04 05:12:23;;;;;;;10.65;2.10;;;;;;;;;;4984391;28;20500;-80
2023/03/04 05:14:49;;;;;;;3.90;2.10;;;;;;;;;;4970207;28;20184;-81
2023/03/04 05:17:15;;;;;;;6.57;2.00;;;;;;;;;;4969626;28;20125;-81
2023/03/04 05:19:41;;;;;;;10.70;2.45;;;;;;;;;;4970246;28;20082;-81
2023/03/04 05:22:07;;;;;;;9.25;2.20;;;;;;;;;;4967104;28;20078;-81
2023/03/04 05:24:33;;;;;;;4.53;2.22;;;;;;;;;;4986003;28;20525;-81
2023/03/04 05:27:00;;;;;;;11.32;2.20;;;;;;;;;;4969264;28;20072;-81
2023/03/04 05:29:26;;;;;;;8.05;2.05;;;;;;;;;;4968061;28;20054;-81
2023/03/04 05:31:52;;;;;;;5.65;1.70;;;;;;;;;;4968053;28;20137;-81
2023/03/04 05:34:18;;;;;;;10.18;2.03;;;;;;;;;;4985354;28;20114;-80
2023/03/04 05:36:44;;;;;;;8.43;2.13;;;;;;;;;;4966897;28;20045;-81
2023/03/04 05:39:10;;;;;;;8.57;2.25;;;;;;;;;;4967099;28;20336;-81
2023/03/04 05:41:36;;;;;;;5.18;2.20;;;;;;;;;;4960850;28;20550;-81
2023/03/04 05:44:02;;;;;;;9.55;2.35;;;;;;;;;;4977915;28;20050;-80
2023/03/04 05:46:28;;;;;;;9.30;2.80;;;;;;;;;;5002088;28;20046;-80
2023/03/04 05:48:54;;;;;;;9.02;2.38;;;;;;;;;;4975113;28;20088;-81
2023/03/04 05:51:20;;;;;;;11.75;2.88;;;;;;;;;;4989665;28;20057;-81
2023/03/04 05:53:47;;;;;;;8.38;2.35;;;;;;;;;;4981261;28;20093;-81
2023/03/04 05:56:14;;;;;;;11.25;2.33;;;;;;;;;;4986499;28;20074;-80
2023/03/04 05:58:40;;;;;;;6.75;2.30;;;;;;;;;;4986033;28;20039;-81
2023/03/04 06:01:06;;;;;;;8.35;2.10;;;;;;;;;;4983600;28;20125;-81
2023/03/04 06:03:33;;;;;;;11.27;2.28;;;;;;;;;;4967136;28;20133;-81
2023/03/04 06:05:59;;;;;;;9.20;2.25;;;;;;;;;;4969473;28;20117;-81
2023/03/04 06:08:26;;;;;;;9.80;2.28;;;;;;;;;;4966997;28;21845;-80
2023/03/04 06:10:53;;;;;;;11.73;2.88;;;;;;;;;;4987794;28;20438;-80
2023/03/04 06:13:19;;;;;;;10.40;2.78;;;;;;;;;;4972497;28;20121;-81
2023/03/04 06:15:45;;;;;;;10.38;3.00;;;;;;;;;;4970365;28;20073;-80
2023/03/04 06:18:11;;;;;;;8.88;2.25;;;;;;;;;;4966666;28;20045;-81
2023/03/04 06:20:38;;;;;;;8.93;2.72;;;;;;;;;;4973108;28;20577;-81
2023/03/04 06:23:04;;;;;;;12.73;2.78;;;;;;;;;;4971927;28;20059;-81
2023/03/04 06:25:30;;;;;;;12.13;2.38;;;;;;;;;;4993236;28;20074;-81
2023/03/04 06:27:56;;;;;;;6.18;2.42;;;;;;;;;;4975482;28;20387;-81
2023/03/04 06:30:23;;;;;;;10.40;2.97;;;;;;;;;;4991081;28;20129;-81
2023/03/04 06:32:49;;;;;;;7.75;2.47;;;;;;;;;;4968949;28;20155;-81
2023/03/04 06:35:16;;;;;;;8.38;2.55;;;;;;;;;;4976148;28;20133;-80
2023/03/04 06:37:42;;;;;;;7.03;2.40;;;;;;;;;;4980859;28;20042;-81
2023/03/04 06:40:09;;;;;;;9.65;2.38;;;;;;;;;;4996397;28;20043;-81
2023/03/04 06:42:35;;;;;;;7.13;2.08;;;;;;;;;;4960897;28;20053;-81
2023/03/04 06:45:03;;;;;;;7.93;2.30;;;;;;;;;;4967346;28;20092;-81
2023/03/04 06:47:29;;;;;;;14.50;2.80;;;;;;;;;;4985173;28;20050;-80
2023/03/04 06:49:55;;;;;;;9.00;3.20;;;;;;;;;;4963908;28;20469;-80
2023/03/04 06:52:21;;;;;;;8.18;2.45;;;;;;;;;;4985308;28;20043;-81
2023/03/04 06:54:47;;;;;;;4.90;1.98;;;;;;;;;;4982696;28;20056;-81
2023/03/04 06:57:13;;;;;;;9.65;2.55;;;;;;;;;;4965952;28;20046;-81
2023/03/04 06:59:39;;;;;;;9.05;2.63;;;;;;;;;;4960017;28;20057;-80
2023/03/04 07:02:06;;;;;;;5.85;1.88;;;;;;;;;;4970233;28;20085;-81
2023/03/04 07:04:32;;;;;;;6.40;2.03;;;;;;;;;;4983815;28;20046;-81
2023/03/04 07:06:58;;;;;;;12.65;2.38;;;;;;;;;;4983530;28;20053;-81
2023/03/04 07:09:24;;;;;;;5.13;2.03;;;;;;;;;;4967810;28;20042;-81
2023/03/04 07:11:50;;;;;;;6.63;2.15;;;;;;;;;;4964412;28;20504;-81
2023/03/04 07:14:16;;;;;;;5.25;2.25;;;;;;;;;;4986516;28;20066;-81
2023/03/04 07:16:42;;;;;;;7.22;2.45;;;;;;;;;;4965494;28;20054;-80
2023/03/04 07:19:08;;;;;;;8.13;2.13;;;;;;;;;;4999000;28;20045;-81
2023/03/04 07:21:34;;;;;;;6.13;2.33;;;;;;;;;;4970783;28;20039;-81
2023/03/04 07:24:00;;;;;;;7.13;2.50;;;;;;;;;;4966397;28;20093;-81
2023/03/04 07:26:26;;;;;;;8.15;2.45;;;;;;;;;;4968033;28;20573;-81
2023/03/04 07:28:53;;;;;;;8.93;2.22;;;;;;;;;;4981573;28;20075;-81
2023/03/04 07:31:19;;;;;;;4.70;2.10;;;;;;;;;;4963904;28;20471;-80
2023/03/04 07:33:45;;;;;;;9.88;2.55;;;;;;;;;;4969079;28;20038;-81
2023/03/04 07:36:13;;;;;;;12.93;2.45;;;;;;;;;;5001391;28;20050;-80
2023/03/04 07:38:42;;;;;;;7.03;2.15;;;;;;;;;;4992595;28;20134;-80
2023/03/04 07:41:08;;;;;;;7.65;2.50;;;;;;;;;;4982779;28;20383;-80
2023/03/04 07:43:34;;;;;;;6.57;2.50;;;;;;;;;;4968746;28;20042;-80
2023/03/04 07:46:00;;;;;;;6.35;2.30;;;;;;;;;;4973049;28;20053;-79
2023/03/04 07:48:27;;;;;;;10.43;2.95;;;;;;;;;;4968265;28;20042;-80
2023/03/04 07:51:04;;;;;;;12.13;2.60;;;;;;;;;;4979862;28;20069;-80
2023/03/04 07:53:31;;;;;;;8.15;2.63;;;;;;;;;;4966540;28;20062;-80
2023/03/04 07:55:57;;;;;;;11.35;2.95;;;;;;;;;;4980897;28;20050;-81
2023/03/04 07:58:23;;;;;;;9.10;2.45;;;;;;;;;;4968946;28;20047;-79
2023/03/04 08:00:49;;;;;;;6.10;2.30;;;;;;;;;;4981253;28;20783;-80
2023/03/04 08:03:15;;;;;;;9.32;2.65;;;;;;;;;;4983568;28;20050;-80
2023/03/04 08:05:41;;;;;;;10.18;2.25;;;;;;;;;;4962225;28;20149;-80
2023/03/04 08:08:07;;;;;;;13.18;3.30;;;;;;;;;;4959620;28;20124;-81
2023/03/04 08:10:33;;;;;;;10.98;2.58;;;;;;;;;;4965577;28;20042;-80
2023/03/04 08:12:59;;;;;;;9.85;2.78;;;;;;;;;;4987542;28;20057;-81
2023/03/04 08:15:26;;;;;;;10.95;2.72;;;;;;;;;;4987787;28;20378;-81
2023/03/04 08:17:52;;;;;;;10.52;2.97;;;;;;;;;;4968294;28;20054;-81
2023/03/04 08:20:18;;;;;;;8.00;2.95;;;;;;;;;;4987722;28;20050;-81
2023/03/04 08:22:44;;;;;;;10.40;2.75;;;;;;;;;;4970765;28;20132;-81
2023/03/04 08:25:10;;;;;;;13.30;2.90;;;;;;;;;;4970694;28;20133;-81
2023/03/04 08:27:36;;;;;;;12.10;2.78;;;;;;;;;;4972722;28;20046;-81
2023/03/04 08:30:03;;;;;;;11.07;2.75;;;;;;;;;;4988975;28;20053;-80
2023/03/04 08:32:29;;;;;;;11.02;2.78;;;;;;;;;;4982911;28;20485;-80
2023/03/04 08:34:55;;;;;;;12.45;3.03;;;;;;;;;;4970167;28;20035;-80
2023/03/04 08:37:22;;;;;;;10.40;2.53;;;;;;;;;;4971828;28;20052;-81
2023/03/04 08:39:48;;;;;;;10.23;3.05;;;;;;;;;;4984369;28;20148;-81
2023/03/04 08:42:14;;;;;;;9.50;2.60;;;;;;;;;;4971586;28;20050;-81
2023/03/04 08:44:40;;;;;;;12.38;2.50;;;;;;;;;;4985616;28;20132;-80
2023/03/04 08:47:09;;;;;;;10.13;2.72;;;;;;;;;;4983552;28;20062;-81
2023/03/04 08:49:35;;;;;;;8.90;2.50;;;;;;;;;;4983355;28;20522;-81
2023/03/04 08:52:01;;;;;;;16.80;3.35;;;;;;;;;;4971502;28;20034;-81
2023/03/04 08:54:27;;;;;;;11.18;2.60;;;;;;;;;;4968539;28;20419;-81
2023/03/04 08:56:53;;;;;;;13.82;3.15;;;;;;;;;;4970098;28;20041;-80
2023/03/04 08:59:19;;;;;;;13.27;2.40;;;;;;;;;;4989205;28;20038;-81
2023/03/04 09:01:45;;;;;;;13.70;2.92;;;;;;;;;;4967240;28;20058;-81
2023/03/04 09:04:11;;;;;;;14.85;2.90;;;;;;;;;;4982939;28;20521;-81
2023/03/04 09:06:37;;;;;;;12.25;3.50;;;;;;;;;;4982388;28;20054;-80
2023/03/04 09:09:03;;;;;;;16.50;3.20;;;;;;;;;;4981442;28;20062;-80
2023/03/04 09:11:29;;;;;;;12.68;3.47;;;;;;;;;;4971330;28;20042;-80
2023/03/04 09:13:56;;;;;;;14.57;3.47;;;;;;;;;;4973044;28;20415;-80
2023/03/04 09:16:22;;;;;;;16.08;4.10;;;;;;;;;;4986689;28;20085;-80
2023/03/04 09:18:48;;;;;;;17.17;3.85;;;;;;;;;;4983805;28;20050;-80
2023/03/04 09:21:14;;;;;;;14.82;3.35;;;;;;;;;;4966446;28;20042;-81
2023/03/04 09:23:40;;;;;;;19.38;3.72;;;;;;;;;;4965731;28;20438;-80
2023/03/04 09:26:32;;;;;;;14.20;3.95;;;;;;;;;;4971687;28;20105;-81
2023/03/04 09:28:59;;;;;;;18.60;4.57;;;;;;;;;;4985384;28;20065;-80
2023/03/04 09:31:26;;;;;;;14.93;4.00;;;;;;;;;;4978665;28;20050;-81
2023/03/04 09:33:53;;;;;;;19.15;4.18;;;;;;;;;;4986275;28;20050;-80
2023/03/04 09:36:19;;;;;;;17.38;3.97;;;;;;;;;;4989332;28;20097;-80
2023/03/04 09:38:45;;;;;;;18.10;3.95;;;;;;;;;;4989032;28;20517;-80
2023/03/04 09:41:16;;;;;;;16.52;4.35;;;;;;;;;;4988030;28;20098;-80
2023/03/04 09:43:43;;;;;;;19.00;4.35;;;;;;;;;;4993387;28;20050;-80
2023/03/04 09:46:15;;;;;;;12.10;3.85;;;;;;;;;;4986525;28;20070;-80
2023/03/04 09:48:45;;;;;;;16.15;3.67;;;;;;;;;;4989117;28;20390;-79
2023/03/04 09:51:34;;;;;;;16.98;4.55;;;;;;;;;;4973562;28;20044;-80
2023/03/04 09:54:22;;;;;;;12.93;3.42;;;;;;;;;;4941494;28;20086;-80
2023/03/04 09:56:50;;;;;;;13.82;3.92;;;;;;;;;;4992585;28;20134;-80
2023/03/04 09:59:29;;;;;;;15.77;3.00;;;;;;;;;;4991927;28;20046;-80
2023/03/04 10:01:56;;;;;;;19.30;4.15;;;;;;;;;;4989711;28;20108;-80
2023/03/04 10:04:51;;;;;;;15.00;3.78;;;;;;;;;;4974935;28;20069;-80
2023/03/04 10:07:25;;;;;;;13.82;3.33;;;;;;;;;;4967929;28;20384;-80
2023/03/04 10:09:55;;;;;;;12.48;3.58;;;;;;;;;;4969716;28;20060;-79
2023/03/04 10:12:24;;;;;;;12.18;3.30;;;;;;;;;;4982753;28;20622;-79
2023/03/04 10:15:05;;;;;;;15.13;3.45;;;;;;;;;;4974870;28;20050;-80
2023/03/04 10:17:39;;;;;;;13.65;3.45;;;;;;;;;;4971052;28;20053;-79
2023/03/04 10:20:05;;;;;;;;;;;;;;;;;;4993345;28;20128;-80
2023/03/04 10:22:31;;;;;;;14.00;3.72;;;;;;;;;;4974444;28;19957;-80
2023/03/04 10:24:58;;;;;;;13.98;4.15;;;;;;;;;;4987221;28;20125;-80
2023/03/04 10:27:24;;;;;;;15.95;3.63;;;;;;;;;;4986808;28;20047;-80
2023/03/04 10:29:51;;;;;;;12.23;3.03;;;;;;;;;;4991224;28;20096;-80
2023/03/04 10:32:20;;;;;;;8.50;2.33;;;;;;;;;;4973969;28;20054;-80
2023/03/04 10:34:46;;;;;;;5.88;2.40;;;;;;;;;;4969592;28;20046;-80
2023/03/04 10:37:12;;;;;;;6.25;2.20;;;;;;;;;;4990676;28;20343;-79
2023/03/04 10:39:39;;;;;;;8.50;2.40;;;;;;;;;;4966520;28;20074;-80
2023/03/04 10:42:21;;;;;;;8.68;2.38;;;;;;;;;;4990696;28;20042;-79
2023/03/04 10:44:58;;;;;;;9.32;2.38;;;;;;;;;;4992153;28;20046;-79
2023/03/04 10:47:25;;;;;;;13.88;2.67;;;;;;;;;;4987482;28;20128;-79
2023/03/04 10:49:52;;;;;;;7.30;2.60;;;;;;;;;;4971620;28;20050;-80
2023/03/04 10:52:28;;;;;;;9.25;3.25;;;;;;;;;;4974055;28;20081;-79
2023/03/04 10:54:56;;;;;;;8.15;2.90;;;;;;;;;;4989367;28;20050;-80
2023/03/04 10:57:38;;;;;;;8.05;2.50;;;;;;;;;;4989272;28;20080;-80
2023/03/04 11:00:16;;;;;;;9.10;2.97;;;;;;;;;;4992283;28;20125;-80
2023/03/04 11:02:42;;;;;;;9.05;2.13;;;;;;;;;;4965785;28;20201;-79
2023/03/04 11:05:14;;;;;;;7.82;2.20;;;;;;;;;;4969595;28;20104;-79
2023/03/04 11:07:44;;;;;;;9.73;3.10;;;;;;;;;;4975116;28;20430;-80
2023/03/04 11:10:15;;;;;;;5.00;2.63;;;;;;;;;;4973095;28;20043;-80
2023/03/04 11:12:41;;;;;;;5.85;1.70;;;;;;;;;;4990037;28;20564;-80
2023/03/04 11:15:26;;;;;;;6.15;1.85;;;;;;;;;;4973563;28;20050;-80
2023/03/04 11:18:10;;;;;;;4.07;1.77;;;;;;;;;;4971533;28;20125;-79
2023/03/04 11:20:37;;;;;;;;;;;;;;;;;;4971818;28;20066;-80
2023/03/04 11:23:05;;;;;;;5.35;1.88;;;;;;;;;;4970266;28;19922;-80
2023/03/04 11:25:36;;;;;;;8.00;1.90;;;;;;;;;;4972557;28;20156;-80
2023/03/04 11:28:05;;;;;;;5.38;2.00;;;;;;;;;;4989123;28;20058;-80
2023/03/04 11:30:41;;;;;;;7.65;2.20;;;;;;;;;;4974240;28;20487;-80
2023/03/04 11:33:14;;;;;;;6.57;2.53;;;;;;;;;;4963621;28;20043;-80
2023/03/04 11:35:49;;;;;;;6.32;2.55;;;;;;;;;;4986800;28;20051;-80
2023/03/04 11:38:19;;;;;;;7.70;2.55;;;;;;;;;;4972792;28;20570;-80
2023/03/04 11:40:45;;;;;;;6.18;3.05;;;;;;;;;;4985544;28;20034;-80
2023/03/04 11:43:12;;;;;;;10.07;2.58;;;;;;;;;;4990538;28;20049;-80
2023/03/04 11:45:58;;;;;;;9.73;2.60;;;;;;;;;;4986269;28;20053;-79
2023/03/04 11:48:44;;;;;;;8.27;2.55;;;;;;;;;;4987727;28;20575;-80
2023/03/04 11:51:10;;;;;;;14.20;3.35;;;;;;;;;;4970768;28;20069;-80
2023/03/04 11:53:40;;;;;;;17.30;3.42;;;;;;;;;;4973229;28;20050;-80
2023/03/04 11:56:24;;;;;;;14.52;3.35;;;;;;;;;;4973138;28;20077;-80
2023/03/04 11:59:06;;;;;;;15.10;3.60;;;;;;;;;;4972983;28;20088;-80
2023/03/04 12:01:51;;;;;;;13.57;3.20;;;;;;;;;;4987083;28;20147;-80
2023/03/04 12:04:39;;;;;;;9.77;2.78;;;;;;;;;;4988872;28;20830;-80
2023/03/04 12:07:05;;;;;;;16.15;3.97;;;;;;;;;;4967502;28;20125;-80
2023/03/04 12:09:50;;;;;;;18.08;3.67;;;;;;;;;;4966144;28;21023;-80
2023/03/04 12:12:46;;;;;;;15.35;3.65;;;;;;;;;;4959250;28;20046;-80
2023/03/04 12:15:32;;;;;;;15.15;3.83;;;;;;;;;;4971574;28;20085;-80
2023/03/04 12:18:07;;;;;;;15.38;3.63;;;;;;;;;;4990412;28;20117;-80
2023/03/04 12:20:43;;;;;;;13.73;3.55;;;;;;;;;;4970278;28;20050;-80
2023/03/04 12:23:27;;;;;;;9.48;3.00;;;;;;;;;;4969551;28;20054;-80
2023/03/04 12:26:12;;;;;;;10.93;2.95;;;;;;;;;;4965730;28;20046;-79
2023/03/04 12:28:51;;;;;;;11.77;3.17;;;;;;;;;;4971302;28;20042;-80
2023/03/04 12:31:29;;;;;;;11.07;3.13;;;;;;;;;;4987878;28;20130;-80
2023/03/04 12:34:14;;;;;;;13.45;3.30;;;;;;;;;;4988730;28;20092;-79
2023/03/04 12:36:49;;;;;;;9.52;3.05;;;;;;;;;;4987006;28;20486;-80
2023/03/04 12:39:24;;;;;;;12.00;3.20;;;;;;;;;;4989387;28;20054;-80
2023/03/04 12:41:53;;;;;;;12.70;3.53;;;;;;;;;;4967474;28;20034;-80
2023/03/04 12:44:19;;;;;;;12.50;3.13;;;;;;;;;;4971857;28;20081;-80
2023/03/04 12:47:10;;;;;;;10.80;3.80;;;;;;;;;;4986063;28;20046;-79
2023/03/04 12:49:47;;;;;;;14.10;3.67;;;;;;;;;;4987848;28;20047;-79
2023/03/04 12:52:19;;;;;;;13.82;3.58;;;;;;;;;;4972134;28;20082;-80
2023/03/04 12:54:48;;;;;;;22.60;3.60;;;;;;;;;;4973108;28;20411;-79
2023/03/04 12:57:22;;;;;;;14.63;3.80;;;;;;;;;;4963076;28;20043;-81
2023/03/04 13:00:08;;;;;;;11.70;3.88;;;;;;;;;;4982207;28;20042;-80
2023/03/04 13:02:53;;;;;;;12.32;3.03;;;;;;;;;;4982905;28;20050;-80
2023/03/04 13:05:28;;;;;;;14.38;3.38;;;;;;;;;;4989429;28;20494;-80
2023/03/04 13:08:06;;;;;;;15.07;4.43;;;;;;;;;;4973258;28;20042;-80
2023/03/04 13:10:32;;;;;;;16.83;4.65;;;;;;;;;;4972100;28;20137;-80
2023/03/04 13:12:59;;;;;;;17.00;4.45;;;;;;;;;;4966460;28;20055;-80
2023/03/04 13:15:25;;;;;;;14.50;3.67;;;;;;;;;;4988132;28;20391;-80
2023/03/04 13:17:53;;;;;;;17.75;4.20;;;;;;;;;;4975134;28;20049;-80
2023/03/04 13:20:19;;;;;;;16.08;4.40;;;;;;;;;;4975941;28;20058;-80
2023/03/04 13:22:53;;;;;;;16.67;3.78;;;;;;;;;;4976048;28;20449;-80
2023/03/04 13:25:37;;;;;;;20.73;4.32;;;;;;;;;;4974183;28;20141;-80
2023/03/04 13:28:14;;;;;;;13.02;3.90;;;;;;;;;;4993964;28;20045;-80
2023/03/04 13:30:42;;;;;;;11.75;4.30;;;;;;;;;;4989290;28;20042;-80
2023/03/04 13:33:17;;;;;;;15.18;4.13;;;;;;;;;;4970643;28;20043;-80
2023/03/04 13:35:46;;;;;;;15.90;4.15;;;;;;;;;;5002868;28;20049;-79
2023/03/04 13:38:31;;;;;;;14.45;3.75;;;;;;;;;;4967419;28;20868;-79
2023/03/04 13:41:15;;;;;;;12.80;4.20;;;;;;;;;;4992658;28;20129;-80
2023/03/04 13:43:43;;;;;;;17.95;4.43;;;;;;;;;;4989778;28;20050;-79
2023/03/04 13:46:18;;;;;;;15.05;4.20;;;;;;;;;;4991086;28;20042;-80
2023/03/04 13:48:50;;;;;;;16.73;3.95;;;;;;;;;;4967538;28;20054;-79
2023/03/04 13:51:18;;;;;;;18.58;4.20;;;;;;;;;;4987953;28;20050;-80
2023/03/04 13:53:52;;;;;;;14.02;3.83;;;;;;;;;;4969670;28;20050;-80
2023/03/04 13:56:17;;;;;;;15.35;4.32;;;;;;;;;;4989991;28;20081;-80
2023/03/04 13:58:44;;;;;;;11.50;3.60;;;;;;;;;;4991370;28;20042;-79
2023/03/04 14:01:27;;;;;;;15.20;3.83;;;;;;;;;;4968786;28;20129;-81
2023/03/04 14:03:54;;;;;;;14.40;3.38;;;;;;;;;;4975391;28;20038;-80
2023/03/04 14:06:24;;;;;;;12.50;3.50;;;;;;;;;;4989261;28;20840;-80
2023/03/04 14:08:51;;;;;;;14.43;3.80;;;;;;;;;;4988578;28;20135;-80
2023/03/04 14:11:24;;;;;;;10.50;3.20;;;;;;;;;;4992469;28;20136;-80
2023/03/04 14:13:50;;;;;;;12.43;3.50;;;;;;;;;;4972133;28;20439;-80
2023/03/04 14:16:24;;;;;;;12.73;3.03;;;;;;;;;;4973376;28;20095;-79
2023/03/04 14:18:57;;;;;;;11.02;3.03;;;;;;;;;;4970473;28;20140;-79
2023/03/04 14:21:23;;;;;;;8.15;2.53;;;;;;;;;;4974365;28;20090;-79
2023/03/04 14:23:59;;;;;;;9.57;2.90;;;;;;;;;;4973488;28;20078;-79
2023/03/04 14:26:25;;;;;;;14.93;3.83;;;;;;;;;;4991303;28;20108;-79
2023/03/04 14:28:56;;;;;;;6.25;2.45;;;;;;;;;;4973703;28;20039;-79
2023/03/04 14:31:23;;;;;;;12.27;3.28;;;;;;;;;;4988196;28;20355;-79
2023/03/04 14:33:51;;;;;;;13.50;3.35;;;;;;;;;;4975380;28;20042;-79
2023/03/04 14:36:22;;;;;;;8.15;3.10;;;;;;;;;;4985254;28;20050;-80
2023/03/04 14:38:51;;;;;;;10.93;3.95;;;;;;;;;;4986675;28;20045;-80
2023/03/04 14:41:29;;;;;;;7.47;3.10;;;;;;;;;;4965367;28;20050;-80
2023/03/04 14:43:59;;;;;;;11.68;3.42;;;;;;;;;;4988361;28;20157;-79
2023/03/04 14:46:29;;;;;;;14.07;3.30;;;;;;;;;;4971070;28;20054;-80
2023/03/04 14:48:55;;;;;;;9.90;3.15;;;;;;;;;;4991822;28;20497;-81